createdAt,value
2023-07-21T00:02:43.340Z,3.50
2023-07-21T00:06:20.748Z,4.30
2023-07-21T00:10:00.526Z,4.50
2023-07-21T00:13:37.487Z,3.60
2023-07-21T00:17:13.326Z,2.10
2023-07-21T00:20:51.854Z,3.40
2023-07-21T00:24:28.708Z,3.70
2023-07-21T00:28:09.425Z,5.00
2023-07-21T00:31:48.016Z,2.80
2023-07-21T00:35:21.727Z,4.60
2023-07-21T00:39:00.179Z,2.50
2023-07-21T00:42:37.865Z,5.50
2023-07-21T00:46:14.763Z,7.60
2023-07-21T00:49:54.225Z,3.60
2023-07-21T00:53:31.111Z,6.40
2023-07-21T00:57:08.982Z,3.80
2023-07-21T01:00:45.974Z,5.30
2023-07-21T01:04:24.519Z,3.40
2023-07-21T01:08:06.134Z,3.70
2023-07-21T01:11:38.766Z,5.10
2023-07-21T01:15:16.340Z,4.20
2023-07-21T01:18:55.300Z,2.20
2023-07-21T01:22:48.958Z,3.30
2023-07-21T01:26:12.367Z,3.80
2023-07-21T01:29:47.114Z,3.70
2023-07-21T01:33:27.620Z,4.60
2023-07-21T01:37:03.653Z,4.80
2023-07-21T01:40:41.195Z,5.30
2023-07-21T01:44:17.916Z,8.40
2023-07-21T01:47:57.473Z,4.00
2023-07-21T01:51:36.310Z,3.40
2023-07-21T01:55:14.910Z,4.50
2023-07-21T01:58:49.570Z,3.00
2023-07-21T02:02:27.048Z,5.60
2023-07-21T02:06:19.814Z,3.60
2023-07-21T02:09:41.600Z,4.40
2023-07-21T02:13:18.853Z,3.60
2023-07-21T02:16:56.474Z,6.70
2023-07-21T02:20:34.294Z,6.10
2023-07-21T02:24:12.668Z,5.70
2023-07-21T02:27:50.253Z,3.90
2023-07-21T02:31:27.388Z,5.40
2023-07-21T02:35:07.394Z,5.80
2023-07-21T02:38:46.455Z,4.60
2023-07-21T02:42:22.089Z,5.50
2023-07-21T02:45:57.992Z,6.00
2023-07-21T02:49:35.732Z,4.20
2023-07-21T02:53:14.264Z,4.40
2023-07-21T02:56:52.379Z,5.90
2023-07-21T03:00:29.390Z,5.40
2023-07-21T03:04:06.992Z,8.30
2023-07-21T03:07:44.299Z,4.70
2023-07-21T03:11:23.116Z,2.50
2023-07-21T03:15:00.664Z,6.80
2023-07-21T03:18:37.674Z,4.30
2023-07-21T03:22:17.286Z,6.90
2023-07-21T03:25:52.755Z,7.40
2023-07-21T03:33:08.575Z,6.40
2023-07-21T03:36:48.007Z,4.90
2023-07-21T03:40:23.495Z,5.90
2023-07-21T03:44:01.495Z,6.10
2023-07-21T03:47:38.690Z,2.60
2023-07-21T03:51:16.503Z,5.10
2023-07-21T03:54:54.496Z,7.80
2023-07-21T04:02:10.420Z,7.20
2023-07-21T04:05:47.438Z,5.30
2023-07-21T04:09:25.164Z,6.60
2023-07-21T04:13:02.276Z,6.50
2023-07-21T04:16:40.392Z,4.00
2023-07-21T04:20:17.847Z,9.20
2023-07-21T04:23:55.732Z,4.30
2023-07-21T04:27:33.405Z,3.90
2023-07-21T04:31:11.095Z,2.70
2023-07-21T04:34:48.407Z,2.20
2023-07-21T04:38:26.067Z,5.70
2023-07-21T04:42:03.832Z,4.50
2023-07-21T04:45:45.007Z,3.60
2023-07-21T04:49:19.560Z,4.00
2023-07-21T04:52:57.493Z,2.50
2023-07-21T04:56:48.816Z,3.30
2023-07-21T05:00:13.590Z,3.60
2023-07-21T05:04:09.204Z,2.90
2023-07-21T05:07:28.437Z,3.80
2023-07-21T05:11:05.773Z,3.40
2023-07-21T05:14:43.298Z,4.30
2023-07-21T05:18:21.320Z,7.10
2023-07-21T05:21:58.822Z,3.60
2023-07-21T05:25:36.196Z,3.80
2023-07-21T05:29:14.014Z,3.90
2023-07-21T05:32:52.052Z,6.00
2023-07-21T05:36:29.193Z,3.10
2023-07-21T05:40:09.315Z,2.60
2023-07-21T05:43:44.607Z,3.00
2023-07-21T05:47:22.717Z,5.40
2023-07-21T05:51:00.596Z,4.80
2023-07-21T05:54:38.729Z,4.40
2023-07-21T05:58:15.580Z,5.30
2023-07-21T06:01:54.252Z,6.10
2023-07-21T06:05:31.502Z,7.20
2023-07-21T06:09:08.592Z,8.50
2023-07-21T06:12:46.657Z,6.30
2023-07-21T06:16:24.756Z,3.00
2023-07-21T06:20:01.541Z,3.50
2023-07-21T06:23:39.853Z,4.30
2023-07-21T06:27:17.531Z,4.20
2023-07-21T06:30:54.721Z,6.20
2023-07-21T06:34:32.591Z,4.10
2023-07-21T06:38:09.779Z,4.70
2023-07-21T06:41:47.726Z,7.20
2023-07-21T06:45:25.470Z,4.40
2023-07-21T06:49:03.751Z,5.10
2023-07-21T06:52:41.109Z,7.70
2023-07-21T06:56:18.284Z,9.00
2023-07-21T06:59:56.244Z,5.50
2023-07-21T07:03:34.025Z,5.70
2023-07-21T07:07:11.612Z,5.60
2023-07-21T07:10:49.693Z,7.10
2023-07-21T07:14:28.450Z,5.10
2023-07-21T07:18:05.593Z,6.90
2023-07-21T07:21:42.599Z,6.30
2023-07-21T07:25:22.277Z,6.30
2023-07-21T07:28:58.658Z,5.90
2023-07-21T07:32:35.950Z,4.80
2023-07-21T07:36:13.855Z,5.50
2023-07-21T07:39:56.707Z,6.90
2023-07-21T07:43:34.936Z,5.70
2023-07-21T07:47:06.253Z,6.40
2023-07-21T07:50:46.287Z,4.50
2023-07-21T07:54:21.807Z,7.40
2023-07-21T07:58:01.179Z,4.70
2023-07-21T08:01:36.579Z,5.20
2023-07-21T08:05:14.962Z,4.20
2023-07-21T08:08:54.559Z,6.10
2023-07-21T08:12:34.089Z,6.00
2023-07-21T08:16:13.026Z,4.90
2023-07-21T08:19:46.310Z,4.30
2023-07-21T08:23:29.529Z,4.00
2023-07-21T08:27:00.960Z,4.60
2023-07-21T08:30:51.536Z,10.80
2023-07-21T08:34:16.174Z,5.10
2023-07-21T08:37:53.911Z,5.20
2023-07-21T08:41:35.685Z,5.00
2023-07-21T08:45:12.069Z,4.20
2023-07-21T08:48:50.396Z,6.40
2023-07-21T08:52:28.453Z,3.20
2023-07-21T08:56:03.501Z,4.90
2023-07-21T08:59:41.775Z,7.10
2023-07-21T09:03:29.895Z,9.00
2023-07-21T09:10:41.545Z,5.80
2023-07-21T09:14:10.612Z,3.80
2023-07-21T09:17:48.157Z,3.70
2023-07-21T09:21:29.963Z,5.70
2023-07-21T09:25:03.546Z,4.60
2023-07-21T09:28:43.939Z,4.30
2023-07-21T09:32:45.938Z,3.00
2023-07-21T09:36:18.939Z,3.00
2023-07-21T09:39:47.415Z,6.10
2023-07-21T09:43:16.995Z,5.00
2023-07-21T09:46:59.081Z,2.70
2023-07-21T09:50:29.172Z,2.80
2023-07-21T09:54:08.211Z,4.10
2023-07-21T09:57:46.389Z,4.00
2023-07-21T10:01:21.674Z,3.40
2023-07-21T10:04:59.090Z,3.10
2023-07-21T10:08:37.849Z,3.20
2023-07-21T10:12:20.963Z,5.50
2023-07-21T10:15:51.513Z,3.80
2023-07-21T10:19:31.181Z,4.70
2023-07-21T10:23:07.897Z,3.10
2023-07-21T10:30:23.047Z,4.90
2023-07-21T10:34:09.920Z,3.00
2023-07-21T10:37:37.830Z,4.10
2023-07-21T10:44:57.300Z,19.50
2023-07-21T10:48:32.988Z,17.30
2023-07-21T10:52:17.646Z,6.50
2023-07-21T10:55:46.160Z,7.60
2023-07-21T10:59:22.702Z,5.10
2023-07-21T11:03:01.734Z,5.60
2023-07-21T11:06:53.755Z,10.40
2023-07-21T11:10:16.878Z,19.00
2023-07-21T11:13:53.922Z,5.90
2023-07-21T11:17:34.989Z,6.30
2023-07-21T11:21:09.772Z,5.90
2023-07-21T11:28:32.035Z,6.80
2023-07-21T11:32:21.906Z,4.40
2023-07-21T11:35:53.552Z,6.00
2023-07-21T11:39:24.062Z,5.30
2023-07-21T11:43:09.448Z,6.00
2023-07-21T11:46:43.998Z,4.40
2023-07-21T11:50:20.820Z,6.60
2023-07-21T11:54:00.219Z,4.90
2023-07-21T11:57:32.275Z,3.30
2023-07-21T12:01:10.914Z,4.00
2023-07-21T12:04:47.359Z,5.20
2023-07-21T12:08:25.207Z,4.30
2023-07-21T12:12:11.155Z,5.30
2023-07-21T12:15:41.260Z,9.00
2023-07-21T12:19:22.766Z,6.00
2023-07-21T12:23:06.832Z,6.30
2023-07-21T12:26:34.245Z,3.50
2023-07-21T12:30:13.561Z,4.60
2023-07-21T12:33:52.974Z,7.60
2023-07-21T12:37:29.660Z,8.10
2023-07-21T12:41:05.107Z,3.30
2023-07-21T12:44:46.924Z,4.20
2023-07-21T12:48:19.912Z,3.70
2023-07-21T12:52:03.507Z,1.90
2023-07-21T12:55:36.767Z,4.10
2023-07-21T12:59:14.577Z,2.50
2023-07-21T13:03:00.414Z,2.00
2023-07-21T13:06:48.903Z,2.70
2023-07-21T13:10:15.048Z,3.00
2023-07-21T13:13:49.833Z,3.20
2023-07-21T13:17:27.780Z,4.90
2023-07-21T13:20:59.707Z,3.10
2023-07-21T13:24:37.372Z,2.80
2023-07-21T13:28:13.128Z,2.10
2023-07-21T13:31:50.934Z,4.80
2023-07-21T13:35:29.537Z,4.40
2023-07-21T13:39:06.970Z,6.30
2023-07-21T13:42:50.296Z,5.40
2023-07-21T13:46:25.277Z,6.30
2023-07-21T13:50:00.454Z,7.70
2023-07-21T13:57:41.248Z,7.90
2023-07-21T14:00:54.101Z,8.50
2023-07-21T14:04:31.852Z,8.90
2023-07-21T14:11:47.056Z,8.60
2023-07-21T14:15:25.581Z,6.30
2023-07-21T14:19:04.882Z,7.90
2023-07-21T14:22:41.065Z,6.70
2023-07-21T14:26:18.581Z,5.50
2023-07-21T14:29:55.553Z,3.80
2023-07-21T14:33:34.638Z,5.80
2023-07-21T14:37:10.847Z,2.80
2023-07-21T14:40:48.683Z,6.50
2023-07-21T14:44:26.706Z,7.70
2023-07-21T14:48:03.851Z,4.20
2023-07-21T14:51:41.705Z,3.50
2023-07-21T14:55:19.417Z,4.30
2023-07-21T14:58:56.953Z,5.20
2023-07-21T15:02:34.780Z,5.00
2023-07-21T15:06:12.197Z,4.50
2023-07-21T15:09:50.248Z,4.30
2023-07-21T15:13:27.671Z,3.50
2023-07-21T15:17:05.473Z,3.00
2023-07-21T15:20:42.970Z,4.60
2023-07-21T15:24:21.707Z,1.90
2023-07-21T15:27:58.552Z,5.20
2023-07-21T15:31:38.106Z,6.30
2023-07-21T15:35:13.909Z,4.10
2023-07-21T15:38:54.178Z,5.30
2023-07-21T15:46:06.880Z,4.80
2023-07-21T15:49:52.291Z,6.30
2023-07-21T15:53:23.032Z,5.90
2023-07-21T15:57:03.258Z,6.30
2023-07-21T16:00:39.531Z,3.00
2023-07-21T16:04:17.665Z,7.90
2023-07-21T16:07:55.075Z,7.80
2023-07-21T16:11:31.832Z,6.20
2023-07-21T16:15:11.258Z,4.30
2023-07-21T16:18:48.062Z,2.30
2023-07-21T16:22:26.818Z,3.20
2023-07-21T16:26:01.565Z,4.40
2023-07-21T16:29:40.844Z,4.80
2023-07-21T16:33:16.854Z,13.00
2023-07-21T16:36:55.717Z,8.70
2023-07-21T16:40:35.921Z,3.70
2023-07-21T16:44:10.882Z,3.10
2023-07-21T16:47:50.391Z,4.20
2023-07-21T16:51:27.859Z,5.70
2023-07-21T16:55:03.429Z,1.60
2023-07-21T16:58:43.447Z,5.90
2023-07-21T17:02:18.964Z,3.60
2023-07-21T17:05:59.394Z,4.70
2023-07-21T17:09:39.790Z,3.80
2023-07-21T17:13:11.946Z,2.70
2023-07-21T17:16:52.462Z,6.00
2023-07-21T17:20:26.554Z,5.10
2023-07-21T17:24:05.856Z,6.00
2023-07-21T17:27:45.590Z,2.90
2023-07-21T17:34:58.607Z,6.30
2023-07-21T17:38:36.448Z,6.10
2023-07-21T17:42:12.962Z,2.40
2023-07-21T17:45:54.970Z,6.30
2023-07-21T17:49:27.859Z,4.90
2023-07-21T17:53:05.232Z,4.20
2023-07-21T17:56:46.025Z,4.00
2023-07-21T18:00:21.751Z,4.50
2023-07-21T18:03:59.111Z,8.20
2023-07-21T18:07:36.021Z,5.40
2023-07-21T18:11:14.223Z,4.30
2023-07-21T18:18:30.829Z,10.40
2023-07-21T18:22:06.855Z,8.50
2023-07-21T18:25:49.092Z,13.30
2023-07-21T18:29:22.256Z,10.90
2023-07-21T18:33:00.030Z,19.40
2023-07-21T18:36:38.433Z,22.60
2023-07-21T18:40:18.369Z,16.80
2023-07-21T18:43:55.230Z,11.30
2023-07-21T18:47:31.133Z,11.20
2023-07-21T18:51:08.522Z,12.70
2023-07-21T18:54:47.945Z,14.00
2023-07-21T18:58:24.201Z,10.20
2023-07-21T19:02:03.046Z,22.50
2023-07-21T19:05:46.997Z,23.90
2023-07-21T19:09:17.472Z,19.40
2023-07-21T19:12:54.545Z,17.50
2023-07-21T19:16:32.243Z,20.10
2023-07-21T19:20:10.657Z,13.20
2023-07-21T19:23:47.485Z,15.50
2023-07-21T19:27:25.093Z,17.60
2023-07-21T19:31:03.003Z,21.40
2023-07-21T19:34:40.982Z,16.90
2023-07-21T19:38:19.554Z,12.10
2023-07-21T19:41:56.593Z,12.30
2023-07-21T19:45:40.094Z,16.30
2023-07-21T19:49:15.390Z,8.50
2023-07-21T19:52:51.972Z,7.70
2023-07-21T19:56:30.441Z,10.60
2023-07-21T20:00:06.654Z,6.60
2023-07-21T20:03:47.425Z,4.10
2023-07-21T20:07:20.155Z,5.10
2023-07-21T20:10:57.769Z,4.10
2023-07-21T20:14:36.820Z,7.10
2023-07-21T20:18:14.315Z,4.40
2023-07-21T20:21:52.878Z,3.60
2023-07-21T20:25:32.311Z,6.10
2023-07-21T20:29:07.632Z,3.70
2023-07-21T20:32:46.327Z,6.80
2023-07-21T20:36:23.753Z,5.50
2023-07-21T20:39:59.538Z,5.20
2023-07-21T20:43:37.469Z,6.60
2023-07-21T20:47:14.509Z,4.70
2023-07-21T20:50:59.430Z,7.00
2023-07-21T20:54:29.165Z,5.20
2023-07-21T20:58:15.391Z,4.00
2023-07-21T21:01:46.935Z,6.10
2023-07-21T21:05:23.516Z,4.30
2023-07-21T21:12:40.165Z,5.90
2023-07-21T21:16:19.525Z,5.30
2023-07-21T21:19:56.190Z,6.60
2023-07-21T21:23:34.200Z,5.70
2023-07-21T21:27:09.402Z,4.50
2023-07-21T21:30:47.091Z,7.20
2023-07-21T21:34:23.944Z,5.50
2023-07-21T21:38:01.298Z,4.40
2023-07-21T21:41:38.473Z,3.90
2023-07-21T21:45:17.262Z,7.30
2023-07-21T21:48:54.490Z,5.20
2023-07-21T21:52:32.559Z,6.30
2023-07-21T21:56:10.766Z,4.60
2023-07-21T21:59:47.659Z,5.20
2023-07-21T22:03:25.577Z,6.10
2023-07-21T22:07:04.186Z,4.70
2023-07-21T22:10:41.221Z,5.70
2023-07-21T22:14:18.676Z,6.10
2023-07-21T22:17:56.084Z,3.00
2023-07-21T22:21:33.892Z,4.10
2023-07-21T22:25:10.965Z,5.40
2023-07-21T22:28:49.318Z,6.50
2023-07-21T22:32:26.879Z,5.10
2023-07-21T22:36:08.586Z,5.40
2023-07-21T22:39:42.032Z,4.60
2023-07-21T22:43:19.366Z,3.80
2023-07-21T22:46:57.252Z,5.60
2023-07-21T22:54:12.306Z,6.70
2023-07-21T22:57:50.217Z,5.50
2023-07-21T23:01:27.917Z,6.80
2023-07-21T23:05:06.588Z,6.80
2023-07-21T23:08:44.093Z,7.80
2023-07-21T23:12:21.137Z,4.80
2023-07-21T23:15:58.612Z,4.00
2023-07-21T23:19:38.662Z,3.20
2023-07-21T23:23:13.760Z,6.60
2023-07-21T23:26:51.825Z,6.10
2023-07-21T23:30:29.875Z,3.40
2023-07-21T23:34:07.476Z,4.60
2023-07-21T23:37:45.118Z,3.10
2023-07-21T23:41:22.588Z,3.70
2023-07-21T23:44:59.935Z,2.90
2023-07-21T23:48:37.711Z,3.40
2023-07-21T23:55:53.738Z,5.00
2023-07-21T23:59:31.524Z,5.60
